Time;durP1;ratioP1;P1;durP2;ratioP2;P2;SDS_P1;SDS_P2;PMS_P1;PMS_P2;Temp;Humidity;BMP_temperature;BMP_pressure;BME280_temperature;BME280_humidity;BME280_pressure;Samples;Min_cycle;Max_cycle;Signal;HPM_P1;HPM_P2
2024/01/13 00:01:53;;;;;;;37.28;18.13;;;;;;;;;;5026515;28;20483;-76
2024/01/13 00:04:19;;;;;;;40.92;19.88;;;;;;;;;;5029230;28;20545;-76
2024/01/13 00:06:45;;;;;;;40.22;20.25;;;;;;;;;;5029300;28;20315;-77
2024/01/13 00:09:11;;;;;;;45.00;20.15;;;;;;;;;;5030568;28;20057;-76
2024/01/13 00:11:37;;;;;;;42.72;22.15;;;;;;;;;;5027159;28;20038;-76
2024/01/13 00:14:03;;;;;;;43.25;22.02;;;;;;;;;;5028081;28;20021;-77
2024/01/13 00:16:29;;;;;;;50.78;22.55;;;;;;;;;;5027024;28;20498;-77
2024/01/13 00:18:56;;;;;;;40.35;22.27;;;;;;;;;;5027733;28;20572;-76
2024/01/13 00:21:22;;;;;;;61.63;24.70;;;;;;;;;;5027113;28;20037;-77
2024/01/13 00:23:48;;;;;;;47.85;24.33;;;;;;;;;;5027995;28;20116;-76
2024/01/13 00:26:14;;;;;;;54.90;27.05;;;;;;;;;;5026460;28;20045;-76
2024/01/13 00:28:40;;;;;;;55.20;25.65;;;;;;;;;;5027927;28;20041;-76
2024/01/13 00:31:07;;;;;;;57.53;26.92;;;;;;;;;;5026689;28;20069;-76
2024/01/13 00:33:33;;;;;;;68.10;29.58;;;;;;;;;;5028426;28;20076;-77
2024/01/13 00:35:59;;;;;;;65.22;30.77;;;;;;;;;;5027506;28;20041;-76
2024/01/13 00:38:25;;;;;;;76.60;31.40;;;;;;;;;;5027933;28;20034;-76
2024/01/13 00:40:51;;;;;;;67.35;32.88;;;;;;;;;;5027123;28;20037;-76
2024/01/13 00:43:17;;;;;;;71.88;33.22;;;;;;;;;;5028875;28;20040;-76
2024/01/13 00:45:44;;;;;;;63.90;32.05;;;;;;;;;;5029430;28;20160;-77
2024/01/13 00:48:10;;;;;;;74.28;33.33;;;;;;;;;;5028650;28;20363;-74
2024/01/13 00:50:36;;;;;;;70.80;33.33;;;;;;;;;;5028277;28;20052;-75
2024/01/13 00:53:02;;;;;;;85.03;37.42;;;;;;;;;;5027781;28;20058;-76
2024/01/13 00:55:28;;;;;;;82.45;37.28;;;;;;;;;;5026515;28;20151;-76
2024/01/13 00:57:54;;;;;;;78.88;36.70;;;;;;;;;;5027936;28;20443;-76
2024/01/13 01:00:20;;;;;;;82.18;37.08;;;;;;;;;;5028449;28;20025;-76
2024/01/13 01:02:47;;;;;;;94.18;40.00;;;;;;;;;;5028567;28;20099;-77
2024/01/13 01:05:13;;;;;;;91.22;39.80;;;;;;;;;;5030610;28;20107;-77
2024/01/13 01:07:39;;;;;;;96.22;40.97;;;;;;;;;;5031903;28;20014;-77
2024/01/13 01:10:05;;;;;;;89.65;39.70;;;;;;;;;;5031610;28;20406;-77
2024/01/13 01:12:31;;;;;;;79.45;38.58;;;;;;;;;;5031545;28;20029;-78
2024/01/13 01:14:57;;;;;;;90.18;38.63;;;;;;;;;;5033264;28;20041;-75
2024/01/13 01:17:24;;;;;;;91.72;39.15;;;;;;;;;;5031959;28;20064;-76
2024/01/13 01:19:50;;;;;;;85.88;38.40;;;;;;;;;;5032335;28;20028;-76
2024/01/13 01:22:16;;;;;;;88.80;37.97;;;;;;;;;;5031004;28;20025;-76
2024/01/13 01:24:42;;;;;;;74.45;35.00;;;;;;;;;;5030538;28;20390;-80
2024/01/13 01:27:08;;;;;;;87.72;37.28;;;;;;;;;;5030263;28;20034;-76
2024/01/13 01:29:34;;;;;;;86.05;36.08;;;;;;;;;;5030739;28;20048;-77
2024/01/13 01:32:00;;;;;;;81.05;35.78;;;;;;;;;;5031771;28;20492;-77
2024/01/13 01:34:27;;;;;;;86.53;35.50;;;;;;;;;;5032229;28;20084;-75
2024/01/13 01:36:54;;;;;;;86.25;35.08;;;;;;;;;;5031952;28;20123;-76
2024/01/13 01:39:20;;;;;;;79.63;34.15;;;;;;;;;;5030448;28;20077;-75
2024/01/13 01:41:46;;;;;;;77.90;33.92;;;;;;;;;;5026920;28;20029;-77
2024/01/13 01:44:12;;;;;;;73.70;31.85;;;;;;;;;;5029175;28;20542;-76
2024/01/13 01:46:38;;;;;;;75.22;32.58;;;;;;;;;;5030335;28;20115;-76
2024/01/13 01:49:05;;;;;;;61.65;29.48;;;;;;;;;;5028946;28;20044;-76
2024/01/13 01:51:32;;;;;;;81.32;32.42;;;;;;;;;;5028446;28;20046;-78
2024/01/13 01:53:59;;;;;;;79.55;31.23;;;;;;;;;;5029772;28;20025;-78
2024/01/13 01:56:28;;;;;;;83.78;31.95;;;;;;;;;;5028509;28;20029;-75
2024/01/13 01:58:55;;;;;;;77.88;32.22;;;;;;;;;;5031634;28;20170;-77
2024/01/13 02:01:22;;;;;;;94.65;31.48;;;;;;;;;;5029593;28;20056;-76
2024/01/13 02:03:49;;;;;;;77.78;31.30;;;;;;;;;;5030055;28;20387;-76
2024/01/13 02:06:15;;;;;;;79.95;32.20;;;;;;;;;;5029992;28;20029;-76
2024/01/13 02:08:42;;;;;;;84.63;32.25;;;;;;;;;;5030109;28;20071;-76
2024/01/13 02:11:10;;;;;;;81.88;31.65;;;;;;;;;;5029719;28;20026;-77
2024/01/13 02:13:36;;;;;;;84.60;33.90;;;;;;;;;;5026336;28;20029;-76
2024/01/13 02:16:03;;;;;;;84.90;33.55;;;;;;;;;;5028231;28;20053;-77
2024/01/13 02:18:29;;;;;;;91.10;34.55;;;;;;;;;;5030205;28;20037;-77
2024/01/13 02:20:55;;;;;;;92.22;34.55;;;;;;;;;;5032304;28;20410;-76
2024/01/13 02:23:21;;;;;;;94.43;35.33;;;;;;;;;;5037742;28;20029;-78
2024/01/13 02:25:47;;;;;;;104.13;37.33;;;;;;;;;;5035386;28;20457;-78
2024/01/13 02:28:13;;;;;;;96.47;37.65;;;;;;;;;;5037254;28;20204;-77
2024/01/13 02:30:39;;;;;;;91.05;35.80;;;;;;;;;;5034735;28;20085;-77
2024/01/13 02:33:05;;;;;;;89.93;37.20;;;;;;;;;;5029366;28;20051;-77
2024/01/13 02:35:31;;;;;;;99.30;36.63;;;;;;;;;;5027833;28;20422;-77
2024/01/13 02:37:57;;;;;;;97.38;36.80;;;;;;;;;;5030253;28;20079;-78
2024/01/13 02:40:24;;;;;;;105.63;39.13;;;;;;;;;;5027538;28;20452;-77
2024/01/13 02:42:50;;;;;;;114.20;37.65;;;;;;;;;;5028993;28;20021;-76
2024/01/13 02:45:16;;;;;;;131.13;42.20;;;;;;;;;;5031643;28;20036;-77
2024/01/13 02:47:46;;;;;;;150.35;46.47;;;;;;;;;;5026733;28;20365;-77
2024/01/13 02:50:13;;;;;;;152.15;44.45;;;;;;;;;;5027677;28;20546;-77
2024/01/13 02:52:40;;;;;;;162.52;44.47;;;;;;;;;;5026951;28;20080;-77
2024/01/13 02:55:07;;;;;;;149.23;42.47;;;;;;;;;;5028311;28;20029;-77
2024/01/13 02:57:33;;;;;;;143.15;43.80;;;;;;;;;;5029205;28;20060;-76
2024/01/13 02:59:59;;;;;;;144.00;41.05;;;;;;;;;;5028902;28;20095;-77
2024/01/13 03:02:25;;;;;;;136.52;40.35;;;;;;;;;;5027963;28;20037;-76
2024/01/13 03:04:51;;;;;;;134.00;38.85;;;;;;;;;;5027517;28;20486;-77
2024/01/13 03:07:17;;;;;;;152.05;40.08;;;;;;;;;;5028959;28;20032;-76
2024/01/13 03:09:44;;;;;;;138.82;36.67;;;;;;;;;;5028193;28;20532;-76
2024/01/13 03:12:11;;;;;;;157.52;41.20;;;;;;;;;;5027002;28;20029;-77
2024/01/13 03:14:37;;;;;;;152.43;38.92;;;;;;;;;;5030286;28;20458;-76
2024/01/13 03:17:03;;;;;;;179.18;41.92;;;;;;;;;;5028835;28;20078;-77
2024/01/13 03:19:29;;;;;;;167.18;40.97;;;;;;;;;;5028412;28;20410;-78
2024/01/13 03:21:55;;;;;;;141.50;39.45;;;;;;;;;;5030240;28;20048;-78
2024/01/13 03:24:21;;;;;;;146.57;39.20;;;;;;;;;;5026699;28;20056;-78
2024/01/13 03:26:48;;;;;;;122.93;34.38;;;;;;;;;;5030686;28;20048;-77
2024/01/13 03:29:14;;;;;;;103.22;31.77;;;;;;;;;;5027976;28;20171;-78
2024/01/13 03:31:40;;;;;;;110.85;32.92;;;;;;;;;;5031250;28;20061;-76
2024/01/13 03:34:06;;;;;;;106.75;31.48;;;;;;;;;;5027315;28;20103;-76
2024/01/13 03:36:32;;;;;;;109.25;32.33;;;;;;;;;;5028287;28;20513;-77
2024/01/13 03:38:59;;;;;;;99.63;31.77;;;;;;;;;;5026153;28;20041;-76
2024/01/13 03:41:26;;;;;;;107.75;32.17;;;;;;;;;;5028018;28;20033;-77
2024/01/13 03:43:57;;;;;;;101.50;31.65;;;;;;;;;;5028780;28;20558;-76
2024/01/13 03:46:25;;;;;;;99.28;30.95;;;;;;;;;;5025567;28;20049;-76
2024/01/13 03:48:51;;;;;;;109.82;32.47;;;;;;;;;;5027700;28;20037;-77
2024/01/13 03:51:17;;;;;;;112.88;32.40;;;;;;;;;;5026214;28;20079;-76
2024/01/13 03:53:43;;;;;;;110.25;33.05;;;;;;;;;;5027828;28;20037;-76
2024/01/13 03:56:10;;;;;;;102.40;29.75;;;;;;;;;;5025496;28;20037;-76
2024/01/13 03:58:36;;;;;;;103.38;31.67;;;;;;;;;;5028267;28;20474;-76
2024/01/13 04:01:03;;;;;;;95.28;28.27;;;;;;;;;;5024653;28;20109;-76
2024/01/13 04:03:29;;;;;;;92.18;27.70;;;;;;;;;;5028292;28;20382;-77
2024/01/13 04:05:56;;;;;;;100.88;27.13;;;;;;;;;;5027015;28;20033;-76
2024/01/13 04:08:22;;;;;;;84.78;26.45;;;;;;;;;;5028039;28;20025;-76
2024/01/13 04:10:48;;;;;;;92.95;25.42;;;;;;;;;;5026222;28;20032;-77
2024/01/13 04:13:15;;;;;;;85.60;24.25;;;;;;;;;;5027612;28;20025;-76
2024/01/13 04:15:41;;;;;;;78.60;22.13;;;;;;;;;;5025850;28;20042;-76
2024/01/13 04:18:07;;;;;;;66.68;20.33;;;;;;;;;;5027069;28;20029;-77
2024/01/13 04:20:33;;;;;;;55.88;17.98;;;;;;;;;;5027335;28;20040;-76
2024/01/13 04:22:59;;;;;;;56.33;17.20;;;;;;;;;;5027236;28;20025;-76
2024/01/13 04:25:25;;;;;;;47.17;16.45;;;;;;;;;;5026277;28;20021;-76
2024/01/13 04:27:54;;;;;;;64.93;18.15;;;;;;;;;;5028047;28;20395;-77
2024/01/13 04:30:20;;;;;;;58.50;17.77;;;;;;;;;;5028866;28;20041;-76
2024/01/13 04:32:46;;;;;;;58.33;17.60;;;;;;;;;;5027815;28;20124;-76
2024/01/13 04:35:12;;;;;;;52.35;16.63;;;;;;;;;;5027608;28;20068;-77
2024/01/13 04:37:39;;;;;;;48.55;15.25;;;;;;;;;;5032399;28;20436;-77
2024/01/13 04:40:05;;;;;;;57.83;16.75;;;;;;;;;;5037242;28;20088;-76
2024/01/13 04:42:33;;;;;;;51.67;17.73;;;;;;;;;;5034344;28;20029;-77
2024/01/13 04:44:59;;;;;;;57.95;17.65;;;;;;;;;;5032719;28;20116;-77
2024/01/13 04:47:26;;;;;;;64.22;18.70;;;;;;;;;;5048354;28;20033;-77
2024/01/13 04:49:52;;;;;;;55.25;18.42;;;;;;;;;;5032889;28;20088;-76
2024/01/13 04:52:18;;;;;;;58.83;18.75;;;;;;;;;;5031803;28;20075;-77
2024/01/13 04:54:44;;;;;;;54.90;18.10;;;;;;;;;;5031114;28;20029;-76
2024/01/13 04:57:11;;;;;;;58.92;17.65;;;;;;;;;;5031263;28;20485;-77
2024/01/13 04:59:37;;;;;;;56.03;17.75;;;;;;;;;;5031783;28;20045;-76
2024/01/13 05:02:03;;;;;;;55.67;16.60;;;;;;;;;;5028252;28;20022;-76
2024/01/13 05:04:29;;;;;;;65.07;19.02;;;;;;;;;;5029335;28;20521;-76
2024/01/13 05:06:55;;;;;;;74.47;20.60;;;;;;;;;;5029829;28;20036;-77
2024/01/13 05:09:22;;;;;;;61.90;20.75;;;;;;;;;;5031028;28;20026;-77
2024/01/13 05:11:48;;;;;;;72.25;20.67;;;;;;;;;;5030143;28;20029;-77
2024/01/13 05:14:16;;;;;;;80.70;22.20;;;;;;;;;;5030524;28;20046;-77
2024/01/13 05:16:42;;;;;;;75.97;22.85;;;;;;;;;;5032981;28;20048;-76
2024/01/13 05:19:09;;;;;;;78.03;25.23;;;;;;;;;;5030255;28;20038;-77
2024/01/13 05:21:35;;;;;;;93.47;27.52;;;;;;;;;;5030802;28;20037;-76
2024/01/13 05:24:01;;;;;;;99.65;27.08;;;;;;;;;;5029867;28;20025;-76
2024/01/13 05:26:27;;;;;;;120.60;30.95;;;;;;;;;;5029896;28;20029;-76
2024/01/13 05:28:53;;;;;;;113.90;31.27;;;;;;;;;;5030594;28;20046;-77
2024/01/13 05:31:20;;;;;;;115.10;31.40;;;;;;;;;;5030059;28;20037;-76
2024/01/13 05:33:46;;;;;;;116.47;32.95;;;;;;;;;;5030219;28;20044;-77
2024/01/13 05:36:12;;;;;;;124.43;33.42;;;;;;;;;;5028468;28;20099;-77
2024/01/13 05:38:38;;;;;;;145.52;36.97;;;;;;;;;;5029189;28;20044;-77
2024/01/13 05:41:04;;;;;;;137.35;36.55;;;;;;;;;;5029463;28;20533;-77
2024/01/13 05:43:30;;;;;;;144.95;35.95;;;;;;;;;;5030342;28;20043;-77
2024/01/13 05:45:57;;;;;;;148.68;36.28;;;;;;;;;;5028815;28;20057;-77
2024/01/13 05:48:23;;;;;;;151.18;36.10;;;;;;;;;;5028901;28;20080;-76
2024/01/13 05:50:49;;;;;;;139.93;35.42;;;;;;;;;;5028554;28;20386;-76
2024/01/13 05:53:15;;;;;;;151.60;35.28;;;;;;;;;;5030565;28;20045;-75
2024/01/13 05:55:43;;;;;;;142.77;35.63;;;;;;;;;;5029604;28;20041;-76
2024/01/13 05:58:09;;;;;;;144.88;32.83;;;;;;;;;;5028592;28;20025;-76
2024/01/13 06:00:35;;;;;;;152.63;34.63;;;;;;;;;;5031402;28;20060;-76
2024/01/13 06:03:02;;;;;;;138.68;33.60;;;;;;;;;;5037000;28;20029;-76
2024/01/13 06:05:29;;;;;;;132.73;30.42;;;;;;;;;;5036445;28;20048;-78
2024/01/13 06:07:55;;;;;;;117.97;30.20;;;;;;;;;;5031501;28;20025;-76
2024/01/13 06:10:21;;;;;;;129.00;31.08;;;;;;;;;;5029555;28;20037;-76
2024/01/13 06:12:47;;;;;;;125.25;29.48;;;;;;;;;;5028639;28;20033;-76
2024/01/13 06:15:13;;;;;;;114.30;28.55;;;;;;;;;;5027398;28;20044;-76
2024/01/13 06:17:39;;;;;;;93.60;26.13;;;;;;;;;;5030178;28;20038;-77
2024/01/13 06:20:06;;;;;;;93.40;27.02;;;;;;;;;;5028563;28;20033;-76
2024/01/13 06:22:32;;;;;;;103.10;28.10;;;;;;;;;;5028812;28;20037;-76
2024/01/13 06:24:58;;;;;;;89.70;26.10;;;;;;;;;;5028395;28;20034;-77
2024/01/13 06:27:24;;;;;;;66.88;20.77;;;;;;;;;;5029438;28;20044;-76
2024/01/13 06:29:50;;;;;;;59.53;18.90;;;;;;;;;;5028129;28;20029;-76
2024/01/13 06:32:16;;;;;;;43.70;14.32;;;;;;;;;;5027177;28;20406;-78
2024/01/13 06:34:43;;;;;;;38.75;13.18;;;;;;;;;;5028350;28;20458;-75
2024/01/13 06:37:09;;;;;;;37.08;13.05;;;;;;;;;;5028093;28;20071;-79
2024/01/13 06:39:35;;;;;;;33.50;12.82;;;;;;;;;;5043150;28;20041;-78
2024/01/13 06:42:06;;;;;;;50.03;11.95;;;;;;;;;;5028617;28;20061;-77
2024/01/13 06:44:33;;;;;;;20.98;10.18;;;;;;;;;;5027719;28;20129;-77
2024/01/13 06:46:59;;;;;;;25.98;9.93;;;;;;;;;;5027916;28;20649;-77
2024/01/13 06:49:25;;;;;;;25.13;10.88;;;;;;;;;;5028278;28;20115;-78
2024/01/13 06:51:52;;;;;;;23.30;11.50;;;;;;;;;;5026890;28;20033;-78
2024/01/13 06:54:18;;;;;;;24.20;11.70;;;;;;;;;;5032009;28;20025;-77
2024/01/13 06:56:44;;;;;;;20.75;9.90;;;;;;;;;;5027677;28;20083;-77
2024/01/13 06:59:11;;;;;;;16.80;10.48;;;;;;;;;;5025648;28;20033;-77
2024/01/13 07:01:37;;;;;;;17.92;10.57;;;;;;;;;;5030218;28;20502;-76
2024/01/13 07:04:03;;;;;;;21.23;11.52;;;;;;;;;;5028912;28;20037;-77
2024/01/13 07:06:30;;;;;;;23.67;11.02;;;;;;;;;;5029128;28;20401;-77
2024/01/13 07:08:57;;;;;;;20.15;11.50;;;;;;;;;;5028872;28;20037;-76
2024/01/13 07:11:23;;;;;;;32.05;12.85;;;;;;;;;;5031917;28;20086;-77
2024/01/13 07:13:49;;;;;;;22.60;10.95;;;;;;;;;;5034882;28;20087;-77
2024/01/13 07:16:15;;;;;;;20.80;10.60;;;;;;;;;;5029895;28;20041;-77
2024/01/13 07:18:42;;;;;;;22.00;10.82;;;;;;;;;;5030444;28;20057;-77
2024/01/13 07:21:08;;;;;;;25.10;11.35;;;;;;;;;;5030606;28;20037;-75
2024/01/13 07:23:34;;;;;;;30.45;12.35;;;;;;;;;;5034591;28;20109;-75
2024/01/13 07:26:03;;;;;;;19.20;11.18;;;;;;;;;;5028868;28;20033;-74
2024/01/13 07:28:30;;;;;;;30.98;12.05;;;;;;;;;;5030312;28;20037;-74
2024/01/13 07:30:56;;;;;;;33.00;14.52;;;;;;;;;;5034714;28;20025;-75
2024/01/13 07:33:22;;;;;;;23.00;12.40;;;;;;;;;;5048605;28;20394;-75
2024/01/13 07:35:48;;;;;;;30.23;12.40;;;;;;;;;;5048393;28;20394;-75
2024/01/13 07:38:14;;;;;;;34.38;11.55;;;;;;;;;;5032887;28;20030;-75
2024/01/13 07:40:40;;;;;;;24.58;11.98;;;;;;;;;;5020598;28;20026;-75
2024/01/13 07:43:07;;;;;;;22.80;12.95;;;;;;;;;;5029447;28;20387;-75
2024/01/13 07:45:33;;;;;;;24.35;12.65;;;;;;;;;;5029444;28;20568;-77
2024/01/13 07:47:59;;;;;;;24.85;11.77;;;;;;;;;;5042374;28;20362;-77
2024/01/13 07:50:25;;;;;;;24.13;12.55;;;;;;;;;;5029310;28;20487;-77
2024/01/13 07:52:51;;;;;;;25.67;14.02;;;;;;;;;;5029220;28;20040;-75
2024/01/13 07:55:21;;;;;;;20.38;11.63;;;;;;;;;;5028550;28;20026;-76
2024/01/13 07:57:47;;;;;;;27.45;11.98;;;;;;;;;;5048833;28;20190;-75
2024/01/13 08:00:13;;;;;;;22.50;12.10;;;;;;;;;;5037856;28;20045;-76
2024/01/13 08:02:39;;;;;;;25.75;12.10;;;;;;;;;;5046845;28;20132;-75
2024/01/13 08:05:05;;;;;;;19.90;11.32;;;;;;;;;;5049315;28;20037;-77
2024/01/13 08:07:32;;;;;;;21.45;12.35;;;;;;;;;;5039192;28;20036;-76
2024/01/13 08:09:58;;;;;;;21.38;12.98;;;;;;;;;;5032788;28;20118;-77
2024/01/13 08:12:25;;;;;;;25.80;13.82;;;;;;;;;;5051415;28;20037;-76
2024/01/13 08:14:51;;;;;;;25.90;14.05;;;;;;;;;;5052606;28;20037;-76
2024/01/13 08:17:17;;;;;;;22.88;12.73;;;;;;;;;;5048098;28;20033;-77
2024/01/13 08:19:43;;;;;;;24.70;13.50;;;;;;;;;;5034055;28;20192;-77
2024/01/13 08:22:10;;;;;;;22.83;12.43;;;;;;;;;;5032744;28;20461;-77
2024/01/13 08:24:36;;;;;;;20.45;12.68;;;;;;;;;;5033492;28;20061;-76
2024/01/13 08:27:02;;;;;;;22.77;12.82;;;;;;;;;;5022591;28;20030;-76
2024/01/13 08:29:29;;;;;;;22.63;14.23;;;;;;;;;;5025427;28;20099;-76
2024/01/13 08:31:56;;;;;;;27.65;13.80;;;;;;;;;;5040275;28;20071;-77
2024/01/13 08:34:23;;;;;;;26.48;14.25;;;;;;;;;;5043642;28;20075;-77
2024/01/13 08:36:49;;;;;;;25.02;13.48;;;;;;;;;;5051866;28;20024;-77
2024/01/13 08:39:15;;;;;;;26.73;13.88;;;;;;;;;;5036211;28;20217;-77
2024/01/13 08:41:41;;;;;;;27.92;13.88;;;;;;;;;;5032972;28;20186;-77
2024/01/13 08:44:08;;;;;;;26.77;13.40;;;;;;;;;;5032298;28;20033;-77
2024/01/13 08:46:34;;;;;;;27.27;13.35;;;;;;;;;;5033881;28;20071;-77
2024/01/13 08:49:00;;;;;;;30.27;13.43;;;;;;;;;;5052726;28;20044;-77
2024/01/13 08:51:27;;;;;;;38.95;14.40;;;;;;;;;;5052956;28;20044;-77
2024/01/13 08:53:53;;;;;;;27.73;13.02;;;;;;;;;;5047263;28;20037;-77
2024/01/13 08:56:19;;;;;;;31.75;12.95;;;;;;;;;;5051950;28;20052;-77
2024/01/13 08:58:45;;;;;;;36.70;12.48;;;;;;;;;;5052356;28;20033;-77
2024/01/13 09:01:11;;;;;;;35.55;13.68;;;;;;;;;;5042810;28;20049;-76
2024/01/13 09:03:40;;;;;;;24.50;12.43;;;;;;;;;;5046490;28;20025;-77
2024/01/13 09:06:06;;;;;;;32.03;12.75;;;;;;;;;;5039248;28;20041;-76
2024/01/13 09:08:32;;;;;;;28.50;13.43;;;;;;;;;;5032069;28;20021;-78
2024/01/13 09:10:59;;;;;;;30.48;12.82;;;;;;;;;;5032507;28;20037;-76
2024/01/13 09:13:25;;;;;;;30.63;13.43;;;;;;;;;;5041059;28;20048;-77
2024/01/13 09:15:51;;;;;;;27.73;13.45;;;;;;;;;;5014033;28;20045;-77
2024/01/13 09:18:17;;;;;;;30.73;14.15;;;;;;;;;;5043797;28;20021;-76
2024/01/13 09:20:43;;;;;;;29.98;13.80;;;;;;;;;;5051755;28;20033;-76
2024/01/13 09:23:09;;;;;;;25.75;13.80;;;;;;;;;;5046878;28;20037;-77
2024/01/13 09:25:35;;;;;;;35.15;16.83;;;;;;;;;;5031532;28;20230;-76
2024/01/13 09:28:01;;;;;;;31.85;15.02;;;;;;;;;;5031530;28;20032;-76
2024/01/13 09:30:28;;;;;;;35.70;16.13;;;;;;;;;;5030290;28;20093;-76
2024/01/13 09:32:54;;;;;;;36.13;17.55;;;;;;;;;;5045564;28;20033;-77
2024/01/13 09:35:20;;;;;;;34.30;17.80;;;;;;;;;;5031762;28;20030;-74
2024/01/13 09:37:46;;;;;;;39.13;18.42;;;;;;;;;;5032198;28;20033;-77
2024/01/13 09:40:13;;;;;;;42.45;21.30;;;;;;;;;;5031426;28;20044;-77
2024/01/13 09:42:58;;;;;;;42.80;22.75;;;;;;;;;;5038240;28;20505;-77
2024/01/13 09:45:24;;;;;;;45.72;24.50;;;;;;;;;;5051643;28;20455;-77
2024/01/13 09:47:50;;;;;;;46.70;24.13;;;;;;;;;;5035047;28;20392;-77
2024/01/13 09:50:16;;;;;;;45.55;23.83;;;;;;;;;;5051848;28;20072;-76
2024/01/13 09:52:43;;;;;;;45.65;23.75;;;;;;;;;;5050314;28;20113;-76
2024/01/13 09:55:12;;;;;;;47.67;25.95;;;;;;;;;;5037622;28;20502;-76
2024/01/13 09:57:39;;;;;;;56.13;28.02;;;;;;;;;;5031288;28;20387;-77
2024/01/13 10:00:06;;;;;;;51.75;28.58;;;;;;;;;;5031783;28;20044;-76
2024/01/13 10:02:32;;;;;;;63.30;34.67;;;;;;;;;;5027881;28;20084;-75
2024/01/13 10:04:58;;;;;;;57.15;31.17;;;;;;;;;;5011953;28;20053;-78
2024/01/13 10:07:25;;;;;;;63.20;33.83;;;;;;;;;;5011530;28;20026;-76
2024/01/13 10:09:51;;;;;;;62.67;33.03;;;;;;;;;;5033851;28;20104;-78
2024/01/13 10:12:18;;;;;;;61.17;31.45;;;;;;;;;;5033364;28;20108;-77
2024/01/13 10:14:45;;;;;;;57.10;31.85;;;;;;;;;;5037140;28;20083;-76
2024/01/13 10:17:11;;;;;;;57.35;31.88;;;;;;;;;;5031398;28;20461;-77
2024/01/13 10:19:38;;;;;;;58.58;30.85;;;;;;;;;;5045508;28;20037;-77
2024/01/13 10:22:05;;;;;;;58.00;32.30;;;;;;;;;;5031436;28;20116;-77
2024/01/13 10:24:31;;;;;;;67.45;33.83;;;;;;;;;;5046345;28;20346;-76
2024/01/13 10:26:58;;;;;;;60.45;32.08;;;;;;;;;;5030788;28;20038;-75
2024/01/13 10:29:24;;;;;;;59.38;30.95;;;;;;;;;;5030767;28;20033;-75
2024/01/13 10:31:51;;;;;;;60.22;32.30;;;;;;;;;;5030975;28;20083;-76
2024/01/13 10:34:20;;;;;;;63.13;32.70;;;;;;;;;;5044357;28;20405;-76
2024/01/13 10:36:46;;;;;;;62.80;32.70;;;;;;;;;;5029992;28;20037;-76
2024/01/13 10:39:12;;;;;;;59.97;31.65;;;;;;;;;;5030067;28;20030;-76
2024/01/13 10:41:51;;;;;;;61.95;31.80;;;;;;;;;;5029794;28;20107;-76
2024/01/13 10:44:19;;;;;;;59.58;32.08;;;;;;;;;;5049001;28;20033;-76
2024/01/13 10:46:49;;;;;;;76.75;34.40;;;;;;;;;;5031389;28;20045;-76
2024/01/13 10:49:21;;;;;;;66.72;34.85;;;;;;;;;;5047135;28;20044;-75
2024/01/13 10:51:55;;;;;;;68.60;37.15;;;;;;;;;;5045911;28;20087;-75
2024/01/13 10:54:25;;;;;;;71.53;37.00;;;;;;;;;;5045015;28;20140;-76
2024/01/13 10:56:52;;;;;;;73.22;38.53;;;;;;;;;;5029580;28;20071;-76
2024/01/13 10:59:19;;;;;;;76.80;38.42;;;;;;;;;;5029467;28;20052;-75
2024/01/13 11:01:46;;;;;;;76.03;39.55;;;;;;;;;;5030389;28;20406;-76
2024/01/13 11:04:13;;;;;;;76.68;40.85;;;;;;;;;;5036392;28;20033;-76
2024/01/13 11:06:40;;;;;;;80.80;41.63;;;;;;;;;;5041752;28;20033;-76
2024/01/13 11:09:08;;;;;;;81.97;42.95;;;;;;;;;;5030150;28;20104;-76
2024/01/13 11:11:41;;;;;;;81.25;42.88;;;;;;;;;;5029821;28;20037;-76
2024/01/13 11:14:09;;;;;;;84.80;43.90;;;;;;;;;;5038197;28;20029;-76
2024/01/13 11:16:37;;;;;;;85.00;44.10;;;;;;;;;;5054309;28;20037;-76
2024/01/13 11:19:03;;;;;;;81.57;43.20;;;;;;;;;;5049177;28;20120;-76
2024/01/13 11:21:30;;;;;;;79.80;43.33;;;;;;;;;;5040638;28;20034;-75
2024/01/13 11:24:07;;;;;;;83.43;43.85;;;;;;;;;;5013671;28;20410;-75
2024/01/13 11:26:36;;;;;;;80.25;41.85;;;;;;;;;;5030001;28;20039;-76
2024/01/13 11:29:02;;;;;;;81.72;42.17;;;;;;;;;;5029851;28;20025;-76
2024/01/13 11:31:29;;;;;;;76.70;40.10;;;;;;;;;;5028645;28;20429;-75
2024/01/13 11:33:56;;;;;;;80.85;40.22;;;;;;;;;;5039428;28;20069;-76
2024/01/13 11:36:22;;;;;;;78.50;41.30;;;;;;;;;;5047235;28;20044;-75
2024/01/13 11:38:49;;;;;;;80.93;42.08;;;;;;;;;;5028698;28;20056;-76
2024/01/13 11:41:16;;;;;;;86.60;41.80;;;;;;;;;;5029947;28;20079;-76
2024/01/13 11:43:45;;;;;;;79.35;42.92;;;;;;;;;;5040462;28;20044;-77
2024/01/13 11:46:11;;;;;;;77.90;41.17;;;;;;;;;;5050892;28;20447;-77
2024/01/13 11:48:41;;;;;;;81.88;41.58;;;;;;;;;;5036425;28;20079;-77
2024/01/13 11:51:13;;;;;;;81.85;41.58;;;;;;;;;;5049152;28;20055;-76
2024/01/13 11:53:40;;;;;;;82.78;41.33;;;;;;;;;;5046227;28;20025;-76
2024/01/13 11:56:07;;;;;;;74.95;40.35;;;;;;;;;;5029463;28;20381;-75
2024/01/13 11:58:36;;;;;;;74.75;39.35;;;;;;;;;;5028876;28;20467;-76
2024/01/13 12:01:06;;;;;;;78.68;39.83;;;;;;;;;;5028848;28;20257;-76
2024/01/13 12:03:32;;;;;;;77.57;40.90;;;;;;;;;;5034115;28;20052;-75
2024/01/13 12:05:59;;;;;;;71.93;37.70;;;;;;;;;;5049059;28;20032;-76
2024/01/13 12:08:26;;;;;;;75.05;39.17;;;;;;;;;;5038589;28;20036;-75
2024/01/13 12:10:53;;;;;;;77.53;40.78;;;;;;;;;;5028380;28;20032;-76
2024/01/13 12:13:20;;;;;;;81.07;39.53;;;;;;;;;;5033235;28;20048;-75
2024/01/13 12:15:46;;;;;;;77.22;39.72;;;;;;;;;;5045137;28;20519;-75
2024/01/13 12:18:25;;;;;;;75.65;40.83;;;;;;;;;;5048313;28;20094;-76
2024/01/13 12:21:00;;;;;;;73.05;37.88;;;;;;;;;;5032535;28;20041;-75
2024/01/13 12:23:26;;;;;;;83.90;39.58;;;;;;;;;;5029205;28;20045;-75
2024/01/13 12:25:53;;;;;;;75.25;37.80;;;;;;;;;;5034097;28;20504;-76
2024/01/13 12:28:22;;;;;;;81.05;39.17;;;;;;;;;;5049599;28;20052;-76
2024/01/13 12:30:53;;;;;;;75.93;39.17;;;;;;;;;;5036949;28;20034;-75
2024/01/13 12:33:19;;;;;;;;;;;;;;;;;;5030336;28;20439;-75
2024/01/13 12:35:48;;;;;;;79.13;37.83;;;;;;;;;;5049179;28;20105;-76
2024/01/13 12:38:14;;;;;;;74.22;37.95;;;;;;;;;;5047765;28;20041;-76
2024/01/13 12:40:41;;;;;;;70.38;37.63;;;;;;;;;;5035243;28;20029;-76
2024/01/13 12:43:07;;;;;;;74.75;37.33;;;;;;;;;;5029062;28;20172;-75
2024/01/13 12:45:33;;;;;;;79.32;40.88;;;;;;;;;;5046452;28;20044;-76
2024/01/13 12:47:59;;;;;;;79.55;37.38;;;;;;;;;;5048571;28;20061;-76
2024/01/13 12:50:25;;;;;;;80.80;38.70;;;;;;;;;;5015965;28;20064;-76
2024/01/13 12:52:57;;;;;;;74.78;35.92;;;;;;;;;;5028737;28;20072;-76
2024/01/13 12:55:23;;;;;;;74.55;38.00;;;;;;;;;;5036184;28;20480;-77
2024/01/13 12:57:49;;;;;;;78.55;37.00;;;;;;;;;;5029809;28;20060;-76
2024/01/13 13:00:15;;;;;;;71.68;36.92;;;;;;;;;;5031819;28;20053;-77
2024/01/13 13:02:42;;;;;;;70.38;36.17;;;;;;;;;;5032235;28;20037;-76
2024/01/13 13:05:08;;;;;;;74.50;36.35;;;;;;;;;;5045696;28;20025;-76
2024/01/13 13:07:34;;;;;;;67.63;34.80;;;;;;;;;;5036700;28;20029;-76
2024/01/13 13:10:00;;;;;;;67.60;35.58;;;;;;;;;;5016298;28;20061;-76
2024/01/13 13:12:27;;;;;;;70.15;35.25;;;;;;;;;;5030938;28;20414;-78
2024/01/13 13:14:53;;;;;;;68.70;35.25;;;;;;;;;;5042162;28;20033;-76
2024/01/13 13:17:19;;;;;;;66.90;34.90;;;;;;;;;;5051757;28;20037;-76
2024/01/13 13:19:45;;;;;;;72.10;35.83;;;;;;;;;;5047059;28;20037;-76
2024/01/13 13:22:12;;;;;;;68.53;34.83;;;;;;;;;;5031754;28;20148;-76
2024/01/13 13:24:38;;;;;;;68.65;34.97;;;;;;;;;;5041725;28;20126;-77
2024/01/13 13:27:04;;;;;;;66.80;33.58;;;;;;;;;;5032165;28;20033;-76
2024/01/13 13:29:30;;;;;;;60.60;33.97;;;;;;;;;;5032053;28;20036;-76
2024/01/13 13:31:57;;;;;;;72.32;33.30;;;;;;;;;;5030670;28;20040;-76
2024/01/13 13:34:23;;;;;;;67.00;35.55;;;;;;;;;;5043719;28;20116;-76
2024/01/13 13:36:50;;;;;;;66.88;34.85;;;;;;;;;;5052475;28;20083;-74
2024/01/13 13:39:16;;;;;;;66.07;35.83;;;;;;;;;;5052558;28;20037;-76
2024/01/13 13:41:43;;;;;;;65.05;33.53;;;;;;;;;;5035971;28;20032;-75
2024/01/13 13:44:09;;;;;;;66.53;34.10;;;;;;;;;;5046573;28;20492;-77
2024/01/13 13:46:38;;;;;;;71.97;34.10;;;;;;;;;;5051149;28;20124;-76
2024/01/13 13:49:04;;;;;;;68.10;34.53;;;;;;;;;;5049151;28;20517;-77
2024/01/13 13:51:30;;;;;;;74.53;37.00;;;;;;;;;;5038025;28;20022;-76
2024/01/13 13:53:56;;;;;;;72.57;37.63;;;;;;;;;;5031941;28;20107;-76
2024/01/13 13:56:23;;;;;;;77.13;35.78;;;;;;;;;;5031408;28;20025;-77
2024/01/13 13:58:49;;;;;;;81.65;36.88;;;;;;;;;;5031772;28;20048;-76
2024/01/13 14:01:17;;;;;;;66.20;34.88;;;;;;;;;;5028127;28;20035;-76
2024/01/13 14:03:43;;;;;;;70.07;35.65;;;;;;;;;;5048970;28;20215;-75
2024/01/13 14:06:09;;;;;;;64.07;33.22;;;;;;;;;;5031098;28;20168;-76
2024/01/13 14:08:37;;;;;;;66.70;31.85;;;;;;;;;;5031274;28;20029;-77
2024/01/13 14:11:04;;;;;;;66.55;33.42;;;;;;;;;;5030284;28;20037;-76
2024/01/13 14:13:30;;;;;;;71.40;35.72;;;;;;;;;;5030789;28;20026;-77